Time;durP1;ratioP1;P1;durP2;ratioP2;P2;SDS_P1;SDS_P2;PMS_P1;PMS_P2;Temp;Humidity;BMP_temperature;BMP_pressure;BME280_temperature;BME280_humidity;BME280_pressure;Samples;Min_cycle;Max_cycle;Signal;HPM_P1;HPM_P2
2021/11/06 00:02:05;;;;;;;16.10;9.70;;;;;;;5.98;71.91;97573.45;115890;1196;24752;-87
2021/11/06 00:04:36;;;;;;;13.70;8.80;;;;;;;6.00;72.00;97572.53;115829;1195;26996;-88
2021/11/06 00:07:07;;;;;;;15.30;8.60;;;;;;;6.01;72.25;97573.03;115857;1196;25938;-88
2021/11/06 00:09:38;;;;;;;13.80;9.90;;;;;;;6.03;72.37;97574.65;115871;1195;24644;-89
2021/11/06 00:12:10;;;;;;;13.10;8.80;;;;;;;6.05;72.13;97567.90;115882;1196;25258;-88
2021/11/06 00:14:41;;;;;;;15.80;9.90;;;;;;;6.04;72.05;97571.52;115681;1196;27663;-87
2021/11/06 00:17:11;;;;;;;13.80;9.40;;;;;;;6.05;71.92;97574.02;115785;1196;24642;-87
2021/11/06 00:19:42;;;;;;;15.50;9.60;;;;;;;6.03;71.76;97571.24;115801;1196;24050;-87
2021/11/06 00:22:15;;;;;;;13.50;9.10;;;;;;;6.02;72.00;97570.30;115821;1196;26578;-88
2021/11/06 00:24:46;;;;;;;13.70;8.70;;;;;;;5.98;71.98;97566.71;115794;1196;23422;-88
2021/11/06 00:27:17;;;;;;;13.20;8.30;;;;;;;5.98;71.97;97566.00;115808;1196;25945;-87
2021/11/06 00:29:48;;;;;;;11.00;8.70;;;;;;;5.94;72.06;97568.94;115820;1196;25047;-88
2021/11/06 00:32:18;;;;;;;12.50;8.90;;;;;;;5.91;71.89;97573.74;115794;1196;29062;-88
2021/11/06 00:34:49;;;;;;;13.40;9.20;;;;;;;5.87;71.98;97576.64;115775;1196;26772;-88
2021/11/06 00:37:20;;;;;;;14.30;8.40;;;;;;;5.81;71.73;97582.20;115731;1197;24837;-88
2021/11/06 00:39:49;;;;;;;;;;;;;;;5.75;71.79;97585.05;115785;1197;29825;-88
2021/11/06 00:42:20;;;;;;;13.40;7.70;;;;;;;5.69;71.63;97583.77;115808;1196;24536;-88
2021/11/06 00:44:51;;;;;;;11.60;7.30;;;;;;;5.66;71.78;97584.99;115818;1196;26408;-88
2021/11/06 00:47:21;;;;;;;12.70;7.80;;;;;;;5.61;71.88;97585.13;115774;1196;24890;-88
2021/11/06 00:49:52;;;;;;;11.60;7.40;;;;;;;5.57;72.15;97588.42;115818;1180;29206;-87
2021/11/06 00:52:23;;;;;;;12.20;7.20;;;;;;;5.53;71.99;97588.43;115813;1190;26076;-88
2021/11/06 00:54:54;;;;;;;9.70;6.80;;;;;;;5.53;71.92;97592.70;115828;1197;24625;-87
2021/11/06 00:57:23;;;;;;;;;;;;;;;5.51;72.06;97592.66;115858;1196;26406;-87
2021/11/06 00:59:54;;;;;;;13.00;7.60;;;;;;;5.49;72.09;97590.62;115812;1189;24703;-88
2021/11/06 01:02:24;;;;;;;11.20;7.20;;;;;;;5.47;71.92;97595.04;115759;1196;25089;-87
2021/11/06 01:04:55;;;;;;;9.70;7.10;;;;;;;5.45;71.99;97593.41;115823;1196;24928;-88
2021/11/06 01:07:24;;;;;;;;;;;;;;;5.40;71.96;97595.06;115822;1196;26239;-88
2021/11/06 01:09:55;;;;;;;13.60;8.00;;;;;;;5.32;72.16;97596.16;115753;1196;24347;-88
2021/11/06 01:12:26;;;;;;;13.30;8.40;;;;;;;5.20;72.71;97594.96;115820;1196;25137;-88
2021/11/06 01:14:55;;;;;;;;;;;;;;;5.10;72.87;97596.86;115915;1196;27634;-89
2021/11/06 01:17:25;;;;;;;12.10;7.30;;;;;;;5.04;72.78;97605.04;115861;1196;26637;-89
2021/11/06 01:19:56;;;;;;;11.10;7.20;;;;;;;5.00;72.80;97610.91;115807;1189;25914;-88
2021/11/06 01:22:25;;;;;;;;;;;;;;;4.99;73.00;97613.63;115854;1195;24009;-88
2021/11/06 01:24:56;;;;;;;10.70;6.70;;;;;;;5.02;73.07;97613.39;115790;1196;24862;-89
2021/11/06 01:27:27;;;;;;;12.00;7.70;;;;;;;5.04;72.89;97613.52;115802;1189;25108;-89
2021/11/06 01:29:58;;;;;;;13.30;8.10;;;;;;;5.02;73.29;97617.15;115832;1196;26321;-89
2021/11/06 01:32:29;;;;;;;10.60;7.40;;;;;;;5.01;73.28;97617.77;115793;1196;23992;-89
2021/11/06 01:35:01;;;;;;;13.40;7.60;;;;;;;5.05;73.40;97616.52;115778;1196;24790;-90
2021/11/06 01:37:32;;;;;;;10.20;7.20;;;;;;;5.10;73.42;97611.95;115868;1196;25589;-89
2021/11/06 01:40:03;;;;;;;11.30;7.60;;;;;;;5.10;73.69;97611.74;115817;1190;25780;-89
2021/11/06 01:42:34;;;;;;;11.90;7.20;;;;;;;5.11;73.59;97611.21;115834;1196;24871;-89
2021/11/06 01:45:05;;;;;;;11.50;7.30;;;;;;;5.14;73.63;97613.79;115833;1196;23616;-88
2021/11/06 01:47:36;;;;;;;10.90;6.50;;;;;;;5.19;73.64;97615.23;115898;1196;26234;-89
2021/11/06 01:50:10;;;;;;;11.60;6.50;;;;;;;5.24;73.58;97612.80;115907;1196;27111;-88
2021/11/06 01:52:41;;;;;;;9.20;6.60;;;;;;;5.28;73.51;97612.39;115863;1196;26739;-89
2021/11/06 01:55:13;;;;;;;11.60;6.00;;;;;;;5.30;73.76;97612.88;115800;1196;25817;-89
2021/11/06 01:57:46;;;;;;;10.20;6.00;;;;;;;5.32;73.54;97610.55;115798;1196;26191;-88
2021/11/06 02:00:21;;;;;;;7.40;5.00;;;;;;;5.35;73.81;97610.25;115877;1196;24986;-89
2021/11/06 02:02:52;;;;;;;8.70;5.50;;;;;;;5.37;73.84;97614.77;115776;1196;24517;-88
2021/11/06 02:05:23;;;;;;;12.40;6.80;;;;;;;5.35;73.65;97612.72;115801;1196;24496;-89
2021/11/06 02:07:54;;;;;;;11.70;6.80;;;;;;;5.27;73.56;97611.96;115863;1196;25396;-88
2021/11/06 02:10:25;;;;;;;12.20;7.70;;;;;;;5.20;73.77;97608.80;115781;1196;23779;-89
2021/11/06 02:12:56;;;;;;;12.30;7.20;;;;;;;5.15;73.82;97610.75;115829;1196;27767;-89
2021/11/06 02:15:27;;;;;;;10.10;6.80;;;;;;;5.10;74.07;97609.20;115811;1196;24025;-88
2021/11/06 02:17:58;;;;;;;13.20;7.00;;;;;;;5.08;74.06;97609.42;115767;1196;31362;-89
2021/11/06 02:20:29;;;;;;;13.20;7.20;;;;;;;5.09;73.98;97610.47;115807;1196;24923;-88
2021/11/06 02:23:00;;;;;;;9.90;6.40;;;;;;;5.08;74.29;97608.73;115812;1196;26861;-89
2021/11/06 02:25:32;;;;;;;14.10;7.60;;;;;;;5.08;74.31;97610.15;115826;1194;23745;-89
2021/11/06 02:28:01;;;;;;;;;;;;;;;5.09;74.37;97606.09;115856;1196;24584;-89
2021/11/06 02:30:32;;;;;;;12.10;7.00;;;;;;;5.10;74.30;97604.95;115805;1196;28945;-88
2021/11/06 02:33:01;;;;;;;;;;;;;;;5.11;74.30;97605.75;115825;1196;23269;-88
2021/11/06 02:35:32;;;;;;;11.10;6.80;;;;;;;5.08;74.32;97610.88;115781;1196;25360;-89
2021/11/06 02:38:02;;;;;;;10.80;6.40;;;;;;;5.07;74.39;97606.92;115839;1196;25869;-89
2021/11/06 02:40:33;;;;;;;10.30;6.30;;;;;;;5.08;74.48;97610.31;115807;1196;25430;-87
2021/11/06 02:43:04;;;;;;;9.20;6.10;;;;;;;5.10;74.29;97610.16;115803;1196;25647;-89
2021/11/06 02:45:36;;;;;;;9.30;5.80;;;;;;;5.13;74.20;97613.08;115850;1196;25384;-89
2021/11/06 02:48:08;;;;;;;9.50;5.30;;;;;;;5.17;74.17;97616.06;115857;1195;25096;-89
2021/11/06 02:50:39;;;;;;;8.30;5.60;;;;;;;5.19;74.24;97618.65;115845;1196;25738;-89
2021/11/06 02:53:10;;;;;;;8.00;4.60;;;;;;;5.21;74.04;97617.94;115890;1196;24276;-89
2021/11/06 02:55:41;;;;;;;7.80;4.70;;;;;;;5.21;74.10;97619.27;115837;1196;26149;-87
2021/11/06 02:58:13;;;;;;;8.00;5.00;;;;;;;5.28;73.96;97626.39;115838;1196;26218;-88
2021/11/06 03:00:44;;;;;;;7.60;5.00;;;;;;;5.30;74.05;97629.83;115758;1196;24550;-89
2021/11/06 03:03:15;;;;;;;11.50;5.90;;;;;;;5.33;73.91;97633.52;115801;1196;24127;-89
2021/11/06 03:05:46;;;;;;;7.30;4.30;;;;;;;5.35;73.86;97633.23;115797;1196;26651;-88
2021/11/06 03:08:17;;;;;;;9.80;6.10;;;;;;;5.38;73.90;97632.40;115808;1196;25301;-89
2021/11/06 03:10:48;;;;;;;11.90;7.00;;;;;;;5.38;73.89;97638.09;115736;1196;23044;-90
2021/11/06 03:13:18;;;;;;;9.10;5.80;;;;;;;5.39;73.79;97643.47;115730;1196;24902;-90
2021/11/06 03:15:49;;;;;;;10.40;6.30;;;;;;;5.39;73.75;97645.41;115797;1196;28504;-89
2021/11/06 03:18:20;;;;;;;9.00;5.50;;;;;;;5.35;73.73;97645.92;115753;1196;25647;-89
2021/11/06 03:20:52;;;;;;;10.80;6.30;;;;;;;5.32;73.82;97646.60;115786;1196;24523;-89
2021/11/06 03:23:27;;;;;;;9.40;6.10;;;;;;;5.32;73.63;97648.58;115787;1191;25766;-88
2021/11/06 03:25:59;;;;;;;9.30;5.90;;;;;;;5.31;73.80;97646.89;115790;1196;26089;-89
2021/11/06 03:28:29;;;;;;;9.80;5.70;;;;;;;5.29;73.87;97644.20;115753;1195;24006;-89
2021/11/06 03:31:00;;;;;;;10.30;6.00;;;;;;;5.26;73.88;97648.26;115750;1196;26616;-89
2021/11/06 03:33:31;;;;;;;8.20;5.50;;;;;;;5.24;73.78;97642.81;115789;1196;24180;-89
2021/11/06 03:36:02;;;;;;;10.20;5.80;;;;;;;5.24;73.89;97647.51;115685;1196;26675;-88
2021/11/06 03:38:33;;;;;;;8.70;6.20;;;;;;;5.22;73.91;97651.57;115748;1190;25058;-89
2021/11/06 03:41:04;;;;;;;7.80;5.60;;;;;;;5.19;73.98;97652.67;115746;1196;25265;-88
2021/11/06 03:43:35;;;;;;;8.80;5.90;;;;;;;5.17;73.94;97654.88;115855;1195;24688;-90
2021/11/06 03:46:05;;;;;;;10.50;6.20;;;;;;;5.16;73.97;97657.89;115904;1195;27800;-89
2021/11/06 03:48:34;;;;;;;;;;;;;;;5.17;73.94;97661.69;115830;1196;25128;-90
2021/11/06 03:51:05;;;;;;;9.40;6.40;;;;;;;5.16;74.13;97656.15;115791;1196;26194;-89
2021/11/06 03:53:36;;;;;;;11.10;6.10;;;;;;;5.15;74.22;97661.50;115823;1196;27226;-89
2021/11/06 03:56:07;;;;;;;8.00;5.20;;;;;;;5.15;74.07;97663.69;115860;1196;24869;-89
2021/11/06 03:58:38;;;;;;;9.80;5.60;;;;;;;5.14;74.16;97659.42;115850;1196;24368;-89
2021/11/06 04:01:09;;;;;;;9.10;5.50;;;;;;;5.16;74.06;97660.73;115908;1196;23185;-88
2021/11/06 04:03:40;;;;;;;9.80;5.40;;;;;;;5.16;74.07;97657.85;115947;1196;24755;-88
2021/11/06 04:06:11;;;;;;;9.70;5.70;;;;;;;5.18;74.12;97662.80;115886;1196;23489;-87
2021/11/06 04:08:43;;;;;;;7.50;4.80;;;;;;;5.19;74.16;97666.17;115804;1184;24639;-88
2021/11/06 04:11:14;;;;;;;8.50;5.00;;;;;;;5.20;74.08;97662.17;115741;1189;24821;-88
2021/11/06 04:13:45;;;;;;;6.60;4.50;;;;;;;5.21;73.95;97659.46;115737;1196;25712;-89
2021/11/06 04:16:17;;;;;;;7.30;4.50;;;;;;;5.21;73.88;97656.81;115729;1196;25307;-89
2021/11/06 04:18:48;;;;;;;7.00;4.50;;;;;;;5.20;73.78;97655.54;115790;1184;25074;-89
2021/11/06 04:21:18;;;;;;;7.90;4.70;;;;;;;5.19;73.84;97657.40;115795;1196;28288;-88
2021/11/06 04:23:49;;;;;;;7.70;4.20;;;;;;;5.16;73.93;97657.89;115784;1189;26401;-90
2021/11/06 04:26:20;;;;;;;6.70;4.50;;;;;;;5.12;73.97;97656.81;115759;1196;26322;-88
2021/11/06 04:28:51;;;;;;;8.20;5.30;;;;;;;5.09;73.99;97662.98;115829;1196;25359;-89
2021/11/06 04:31:21;;;;;;;8.90;4.80;;;;;;;5.05;73.99;97665.02;115836;1196;24362;-87
2021/11/06 04:33:52;;;;;;;8.30;5.00;;;;;;;5.03;74.02;97666.48;115850;1196;26291;-88
2021/11/06 04:36:21;;;;;;;;;;;;;;;5.03;74.07;97664.69;115815;1196;27228;-88
2021/11/06 04:38:52;;;;;;;8.40;5.50;;;;;;;5.02;74.21;97664.82;115714;1196;23947;-88
2021/11/06 04:41:23;;;;;;;6.40;4.60;;;;;;;5.01;74.28;97669.77;115727;1195;25906;-88
2021/11/06 04:43:53;;;;;;;7.40;5.10;;;;;;;5.01;74.31;97668.75;115750;1196;24801;-88
2021/11/06 04:46:23;;;;;;;;;;;;;;;5.02;74.32;97671.29;115780;1196;24626;-88
2021/11/06 04:48:53;;;;;;;6.40;4.30;;;;;;;5.03;74.20;97673.54;115779;1196;27161;-89
2021/11/06 04:51:24;;;;;;;7.30;4.60;;;;;;;5.04;74.36;97673.77;115863;1196;26164;-89
2021/11/06 04:53:55;;;;;;;5.60;4.00;;;;;;;5.03;73.93;97672.68;115682;1196;118099;-88
2021/11/06 04:56:26;;;;;;;7.40;4.70;;;;;;;4.98;73.94;97673.39;115812;1196;24645;-88
2021/11/06 04:58:57;;;;;;;7.60;4.70;;;;;;;4.90;74.22;97673.45;115729;1196;24244;-88
2021/11/06 05:01:28;;;;;;;5.80;3.90;;;;;;;4.82;74.26;97674.71;115774;1196;23886;-89
2021/11/06 05:03:59;;;;;;;7.50;4.70;;;;;;;4.74;74.22;97675.93;115827;1196;69733;-89
2021/11/06 05:06:31;;;;;;;5.60;4.30;;;;;;;4.66;74.36;97676.98;115864;1196;25263;-88
2021/11/06 05:09:02;;;;;;;5.40;3.20;;;;;;;4.60;74.25;97680.29;115892;1196;25088;-90
2021/11/06 05:11:32;;;;;;;5.30;4.10;;;;;;;4.56;74.65;97685.93;115884;1196;27645;-89
2021/11/06 05:14:03;;;;;;;7.10;4.60;;;;;;;4.54;74.52;97685.19;115871;1196;26218;-90
2021/11/06 05:16:34;;;;;;;6.60;3.70;;;;;;;4.52;74.67;97685.73;115897;1196;25412;-89
2021/11/06 05:19:05;;;;;;;5.50;3.60;;;;;;;4.51;74.75;97685.41;115858;1196;26100;-89
2021/11/06 05:21:37;;;;;;;;;;;;;;;4.49;74.64;97693.37;115916;1195;25683;-90
2021/11/06 05:24:09;;;;;;;4.60;3.30;;;;;;;4.42;74.53;97694.07;115926;1196;25436;-89
2021/11/06 05:26:41;;;;;;;3.90;2.90;;;;;;;4.36;74.53;97694.36;115910;1196;27112;-89
2021/11/06 05:29:12;;;;;;;4.10;2.80;;;;;;;4.31;74.50;97698.48;115821;1196;28066;-88
2021/11/06 05:31:43;;;;;;;5.20;3.40;;;;;;;4.26;74.65;97700.36;115896;1196;26340;-90
2021/11/06 05:34:14;;;;;;;4.20;2.70;;;;;;;4.24;74.57;97702.98;115872;1195;26389;-89
2021/11/06 05:36:45;;;;;;;3.60;2.30;;;;;;;4.24;74.74;97708.48;115847;1196;34196;-89
2021/11/06 05:39:16;;;;;;;3.50;2.60;;;;;;;4.22;74.61;97705.89;115925;1195;27158;-90
2021/11/06 05:41:47;;;;;;;3.50;2.30;;;;;;;4.22;74.59;97712.41;115784;1196;36628;-89
2021/11/06 05:44:19;;;;;;;4.70;2.50;;;;;;;4.21;74.57;97715.59;115877;1195;25196;-90
2021/11/06 05:46:49;;;;;;;3.70;2.20;;;;;;;4.24;74.70;97723.42;115880;1196;27700;-89
2021/11/06 05:49:20;;;;;;;4.30;2.40;;;;;;;4.29;74.71;97725.28;115849;1196;25021;-90
2021/11/06 05:51:49;;;;;;;;;;;;;;;4.32;74.65;97722.51;115901;1196;24623;-88
2021/11/06 05:54:21;;;;;;;6.20;2.20;;;;;;;4.34;74.62;97723.88;115860;1195;25656;-90
2021/11/06 05:56:51;;;;;;;4.40;2.10;;;;;;;4.47;74.56;97724.70;115818;1196;25349;-89
2021/11/06 05:59:22;;;;;;;2.80;2.10;;;;;;;4.86;74.41;97730.48;115821;1195;38711;-89
2021/11/06 06:01:53;;;;;;;2.50;2.10;;;;;;;5.28;73.94;97729.09;115826;1180;27973;-88
2021/11/06 06:04:24;;;;;;;3.30;2.30;;;;;;;5.69;73.42;97733.16;115810;1196;25182;-89
2021/11/06 06:06:55;;;;;;;2.60;2.10;;;;;;;6.11;72.76;97738.33;115858;1180;24863;-89
2021/11/06 06:09:26;;;;;;;3.30;2.50;;;;;;;6.51;72.11;97739.95;115821;1196;27632;-89
2021/11/06 06:11:57;;;;;;;5.80;3.70;;;;;;;6.93;71.40;97742.16;115862;1196;24512;-89
2021/11/06 06:14:27;;;;;;;2.80;2.40;;;;;;;7.32;70.68;97743.89;115887;1190;25521;-89
2021/11/06 06:16:57;;;;;;;;;;;;;;;7.21;69.67;97746.99;115857;1196;26050;-89
2021/11/06 06:19:27;;;;;;;3.80;2.20;;;;;;;6.88;69.64;97752.90;115860;1196;31954;-89
2021/11/06 06:21:58;;;;;;;4.10;2.50;;;;;;;6.80;69.85;97755.34;115879;1196;24235;-90
2021/11/06 06:24:29;;;;;;;3.40;2.20;;;;;;;7.03;69.80;97755.48;115869;1191;26884;-89
2021/11/06 06:27:00;;;;;;;4.80;2.30;;;;;;;6.95;69.01;97754.76;115865;1195;25763;-90
2021/11/06 06:29:31;;;;;;;3.30;2.30;;;;;;;6.63;69.04;97764.11;115861;1196;24151;-90
2021/11/06 06:32:02;;;;;;;2.80;2.00;;;;;;;6.38;69.27;97765.05;115918;1196;27516;-89
2021/11/06 06:34:33;;;;;;;3.80;2.50;;;;;;;6.16;69.51;97760.83;115882;1191;26851;-87
2021/11/06 06:37:04;;;;;;;2.50;1.90;;;;;;;6.02;69.91;97763.59;115921;1193;26801;-89
2021/11/06 06:39:35;;;;;;;3.50;2.40;;;;;;;5.90;70.26;97766.22;115947;1190;25822;-87
2021/11/06 06:42:07;;;;;;;3.90;2.80;;;;;;;5.82;70.40;97772.93;115949;1196;25190;-88
2021/11/06 06:44:38;;;;;;;2.90;2.00;;;;;;;5.79;70.44;97770.02;115980;1196;24773;-88
2021/11/06 06:47:12;;;;;;;3.60;2.70;;;;;;;5.78;70.70;97781.58;116013;1189;25213;-87
2021/11/06 06:49:44;;;;;;;4.40;2.80;;;;;;;5.79;70.71;97783.26;115887;1196;28105;-87
2021/11/06 06:52:15;;;;;;;3.00;2.20;;;;;;;5.80;70.69;97787.98;115934;1195;27318;-87
2021/11/06 06:54:47;;;;;;;3.50;2.80;;;;;;;5.79;70.80;97784.19;115892;1196;28316;-86
2021/11/06 06:57:17;;;;;;;4.70;2.90;;;;;;;5.81;70.88;97777.52;115858;1196;26930;-86
2021/11/06 06:59:49;;;;;;;3.70;1.70;;;;;;;5.81;70.84;97780.07;115901;1196;32561;-87
2021/11/06 07:02:20;;;;;;;2.00;1.50;;;;;;;5.82;70.82;97777.19;115932;1180;25577;-88
2021/11/06 07:04:51;;;;;;;2.30;1.50;;;;;;;5.82;70.82;97779.21;115911;1193;26701;-88
2021/11/06 07:07:22;;;;;;;2.30;1.50;;;;;;;5.85;70.75;97787.39;115921;1196;25474;-88
2021/11/06 07:09:53;;;;;;;2.90;2.30;;;;;;;5.90;70.65;97784.20;115894;1181;27563;-87
2021/11/06 07:12:26;;;;;;;2.30;2.10;;;;;;;5.95;70.78;97791.77;115871;1196;25412;-88
2021/11/06 07:14:57;;;;;;;4.20;2.40;;;;;;;5.99;70.46;97794.17;116030;1196;27731;-89
2021/11/06 07:17:28;;;;;;;4.80;3.40;;;;;;;6.03;70.75;97800.55;115939;1195;25018;-88
2021/11/06 07:19:59;;;;;;;7.50;3.30;;;;;;;6.03;70.72;97800.13;115933;1196;26384;-88
2021/11/06 07:22:30;;;;;;;4.40;3.00;;;;;;;6.04;70.70;97799.15;115930;1196;26265;-90
2021/11/06 07:25:01;;;;;;;6.60;3.00;;;;;;;6.09;70.62;97794.79;115858;1196;27471;-88
2021/11/06 07:27:34;;;;;;;5.60;3.30;;;;;;;6.11;70.41;97790.59;115908;1190;24864;-87
2021/11/06 07:30:09;;;;;;;4.90;3.10;;;;;;;6.18;70.55;97792.20;116154;1195;25283;-87
2021/11/06 07:32:41;;;;;;;4.30;2.90;;;;;;;6.26;70.58;97793.68;115949;1196;32099;-92
2021/11/06 07:35:12;;;;;;;6.70;3.60;;;;;;;6.44;70.51;97791.76;116094;1196;28581;-92
2021/11/06 07:37:44;;;;;;;4.10;2.60;;;;;;;6.66;70.26;97786.85;116463;1196;29926;-93
2021/11/06 07:40:15;;;;;;;4.90;2.60;;;;;;;6.76;69.92;97794.61;115932;1196;28083;-87
2021/11/06 07:42:48;;;;;;;4.90;2.90;;;;;;;6.91;69.68;97800.65;115873;1189;25395;-86
2021/11/06 07:45:20;;;;;;;3.10;2.30;;;;;;;7.06;69.51;97798.74;115908;1195;25287;-86
2021/11/06 07:47:51;;;;;;;4.00;2.70;;;;;;;7.23;69.15;97802.69;115860;1196;23718;-85
2021/11/06 07:50:22;;;;;;;5.30;3.10;;;;;;;7.38;68.87;97797.40;115924;1195;23627;-85
2021/11/06 07:52:54;;;;;;;3.50;2.80;;;;;;;7.53;68.58;97803.77;115848;1196;35207;-85
2021/11/06 07:55:25;;;;;;;3.60;2.90;;;;;;;7.58;68.03;97803.23;115986;1196;29365;-84
2021/11/06 07:57:55;;;;;;;4.80;3.00;;;;;;;7.53;68.00;97806.40;116109;1196;23771;-85
2021/11/06 08:00:24;;;;;;;;;;;;;;;7.47;67.83;97813.77;116069;1195;24409;-86
2021/11/06 08:02:55;;;;;;;5.90;3.00;;;;;;;7.41;67.93;97812.77;115986;1196;30811;-85
2021/11/06 08:05:24;;;;;;;;;;;;;;;7.38;67.97;97817.40;116065;1196;34389;-85
2021/11/06 08:07:55;;;;;;;4.20;2.50;;;;;;;7.28;67.69;97817.52;115999;1190;24925;-83
2021/11/06 08:10:26;;;;;;;3.10;2.40;;;;;;;7.25;67.72;97820.56;116015;1180;29853;-84
2021/11/06 08:13:00;;;;;;;4.00;3.10;;;;;;;7.33;67.76;97820.04;115976;1195;32724;-85
2021/11/06 08:15:31;;;;;;;5.00;3.10;;;;;;;7.46;67.71;97819.75;116114;1196;27727;-84
2021/11/06 08:18:01;;;;;;;6.00;3.70;;;;;;;7.55;67.59;97818.27;115955;1195;27166;-84
2021/11/06 08:20:33;;;;;;;4.60;2.80;;;;;;;7.61;67.36;97821.17;116009;1196;40234;-84
2021/11/06 08:23:03;;;;;;;4.40;2.80;;;;;;;7.68;67.41;97822.95;115999;1196;25021;-84
2021/11/06 08:25:34;;;;;;;4.60;3.20;;;;;;;7.77;67.47;97821.83;116046;1196;27942;-85
2021/11/06 08:28:05;;;;;;;3.30;2.30;;;;;;;7.81;67.33;97821.23;116057;1196;24745;-85
2021/11/06 08:30:36;;;;;;;4.80;3.00;;;;;;;7.88;67.20;97825.61;115973;1196;24905;-84
2021/11/06 08:33:07;;;;;;;3.90;2.50;;;;;;;7.93;66.93;97828.80;116030;1196;56382;-84
2021/11/06 08:35:37;;;;;;;5.30;3.20;;;;;;;7.96;66.86;97832.49;116128;1196;49550;-84
2021/11/06 08:38:07;;;;;;;;;;;;;;;7.98;67.13;97835.39;116141;1190;26269;-85
2021/11/06 08:40:38;;;;;;;4.50;2.80;;;;;;;8.14;66.96;97833.41;116099;1195;25207;-84
2021/11/06 08:43:09;;;;;;;3.60;2.90;;;;;;;8.26;66.48;97833.50;116062;1196;56034;-84
2021/11/06 08:45:40;;;;;;;4.90;3.30;;;;;;;8.38;66.42;97837.98;115987;1196;25310;-85
2021/11/06 08:48:11;;;;;;;5.70;3.10;;;;;;;8.54;66.10;97840.27;115934;1180;26333;-85
2021/11/06 08:50:43;;;;;;;5.50;3.30;;;;;;;8.65;65.64;97840.39;115850;1190;78567;-86
2021/11/06 08:53:14;;;;;;;3.10;2.50;;;;;;;8.77;65.42;97839.92;115904;1196;25089;-86
2021/11/06 08:55:45;;;;;;;5.60;3.10;;;;;;;8.88;65.04;97845.27;115932;1195;24534;-84
2021/11/06 08:58:16;;;;;;;4.40;2.70;;;;;;;9.01;64.84;97846.77;115956;1196;24195;-85
2021/11/06 09:00:49;;;;;;;4.70;2.70;;;;;;;9.14;64.46;97849.91;115872;1196;25185;-84
2021/11/06 09:03:22;;;;;;;2.80;2.30;;;;;;;9.28;64.13;97853.11;115889;1190;25737;-84
2021/11/06 09:05:55;;;;;;;5.10;2.70;;;;;;;9.34;63.41;97857.77;115901;1196;24696;-86
2021/11/06 09:08:29;;;;;;;3.50;2.10;;;;;;;9.42;62.86;97858.95;115908;1196;26462;-85
2021/11/06 09:11:03;;;;;;;1.80;1.60;;;;;;;9.34;61.53;97856.49;115736;1196;24751;-86
2021/11/06 09:13:34;;;;;;;3.10;1.70;;;;;;;9.13;60.31;97853.52;115724;1196;24263;-84
2021/11/06 09:16:07;;;;;;;2.80;1.80;;;;;;;8.96;60.36;97855.73;115760;1196;25903;-85
2021/11/06 09:18:39;;;;;;;1.80;1.40;;;;;;;8.88;60.08;97857.02;115894;1196;22979;-84
2021/11/06 09:21:12;;;;;;;2.50;1.80;;;;;;;8.85;60.17;97859.95;116079;1196;24227;-84
2021/11/06 09:23:43;;;;;;;2.60;1.50;;;;;;;8.82;60.13;97860.38;116036;1189;22489;-84
2021/11/06 09:26:14;;;;;;;4.50;1.90;;;;;;;8.74;59.66;97865.30;116023;1196;24071;-85
2021/11/06 09:28:47;;;;;;;2.60;1.80;;;;;;;8.56;59.66;97862.21;116041;1196;22431;-84
2021/11/06 09:31:19;;;;;;;3.00;1.90;;;;;;;8.54;60.40;97861.89;116091;1196;22446;-85
2021/11/06 09:33:50;;;;;;;2.80;1.80;;;;;;;8.69;59.85;97857.52;116057;1196;22443;-84
2021/11/06 09:36:21;;;;;;;2.40;1.70;;;;;;;8.77;59.39;97855.58;116065;1183;24036;-89
2021/11/06 09:38:51;;;;;;;4.50;1.80;;;;;;;8.82;59.18;97856.10;116122;1196;22429;-89
2021/11/06 09:41:22;;;;;;;2.60;1.50;;;;;;;8.72;59.02;97859.92;116133;1196;22432;-89
2021/11/06 09:43:53;;;;;;;2.20;1.60;;;;;;;8.57;58.90;97855.14;116037;1194;22730;-85
2021/11/06 09:46:27;;;;;;;1.80;1.60;;;;;;;8.36;58.79;97856.45;116006;1190;22446;-83
2021/11/06 09:48:58;;;;;;;2.60;1.40;;;;;;;8.20;59.40;97855.38;116030;1196;24276;-84
2021/11/06 09:51:29;;;;;;;2.70;1.30;;;;;;;8.11;59.25;97853.95;116057;1189;22467;-84
2021/11/06 09:54:00;;;;;;;1.80;1.30;;;;;;;8.02;59.42;97854.96;115985;1196;22434;-83
2021/11/06 09:56:30;;;;;;;1.80;1.20;;;;;;;7.95;59.54;97852.12;116038;1196;22431;-83
2021/11/06 09:59:01;;;;;;;1.20;0.90;;;;;;;7.96;59.51;97846.95;116045;1196;26833;-83
2021/11/06 10:01:33;;;;;;;1.60;1.00;;;;;;;7.99;59.46;97849.81;116023;1196;22424;-83
2021/11/06 10:04:07;;;;;;;1.60;1.00;;;;;;;7.98;59.04;97846.84;116055;1196;22930;-83
2021/11/06 10:06:44;;;;;;;1.30;1.00;;;;;;;7.94;59.17;97847.40;116054;1196;22428;-82
2021/11/06 10:09:16;;;;;;;3.70;1.10;;;;;;;7.92;59.34;97850.27;116016;1195;22444;-82
2021/11/06 10:11:49;;;;;;;1.70;1.20;;;;;;;7.93;59.45;97849.81;116106;1189;22453;-84
2021/11/06 10:14:22;;;;;;;3.20;1.30;;;;;;;7.95;59.52;97848.59;116119;1195;25097;-84
2021/11/06 10:16:56;;;;;;;3.70;2.30;;;;;;;7.95;59.39;97849.90;116084;1189;22451;-84
2021/11/06 10:19:30;;;;;;;6.60;3.00;;;;;;;7.96;59.34;97851.02;116164;1195;22675;-83
2021/11/06 10:22:11;;;;;;;5.50;3.00;;;;;;;7.91;59.03;97838.95;116096;1196;26523;-84
2021/11/06 10:24:45;;;;;;;4.70;2.40;;;;;;;7.87;59.11;97841.66;116112;1196;22435;-84
2021/11/06 10:27:22;;;;;;;7.60;4.00;;;;;;;7.89;59.11;97839.85;115647;1196;40474;-83
2021/11/06 10:30:06;;;;;;;5.20;3.60;;;;;;;7.92;59.18;97837.85;115740;1196;28113;-84
2021/11/06 10:32:38;;;;;;;7.10;2.90;;;;;;;7.95;59.09;97834.59;115747;1189;33082;-84
2021/11/06 10:35:17;;;;;;;2.90;1.60;;;;;;;7.99;59.13;97831.08;115945;1196;33898;-84
2021/11/06 10:37:56;;;;;;;4.10;1.60;;;;;;;8.07;58.92;97826.92;115779;1196;27896;-82
2021/11/06 10:40:31;;;;;;;2.80;1.90;;;;;;;8.05;58.10;97828.26;115822;1196;27695;-85
2021/11/06 10:43:05;;;;;;;1.60;0.80;;;;;;;8.00;58.47;97823.80;115787;1195;28280;-86
2021/11/06 10:45:45;;;;;;;1.70;1.30;;;;;;;8.14;58.82;97820.09;115907;1196;23592;-84
2021/11/06 10:48:18;;;;;;;2.30;1.30;;;;;;;8.45;58.40;97813.46;115817;1189;30503;-85
2021/11/06 10:50:57;;;;;;;1.90;1.70;;;;;;;8.65;58.42;97806.34;115804;1196;31080;-84
2021/11/06 10:53:42;;;;;;;1.70;1.40;;;;;;;8.95;58.00;97798.99;115925;1190;29751;-84
2021/11/06 10:56:34;;;;;;;2.20;1.30;;;;;;;9.17;57.69;97798.42;115926;1195;33000;-83
2021/11/06 10:59:13;;;;;;;3.50;1.50;;;;;;;9.32;56.40;97790.31;115842;1196;30703;-83
2021/11/06 11:01:52;;;;;;;1.90;1.10;;;;;;;9.41;55.98;97787.99;115822;1196;24435;-84
2021/11/06 11:04:25;;;;;;;2.00;1.60;;;;;;;9.48;55.59;97784.95;115835;1189;23707;-84
2021/11/06 11:06:59;;;;;;;2.00;1.40;;;;;;;9.57;55.55;97778.65;115821;1196;41604;-84
2021/11/06 11:09:37;;;;;;;2.80;1.10;;;;;;;9.70;55.15;97778.64;115845;1196;24162;-83
2021/11/06 11:12:18;;;;;;;4.90;2.60;;;;;;;9.76;54.62;97778.09;115966;1196;24116;-83
2021/11/06 11:14:56;;;;;;;2.80;1.20;;;;;;;9.91;55.13;97774.73;115805;1182;24922;-82
2021/11/06 11:20:35;;;;;;;1.70;1.60;;;;;;;10.10;53.54;97766.02;113486;1215;544621;-85
2021/11/06 11:23:21;;;;;;;2.80;1.50;;;;;;;10.16;53.74;97765.36;115192;1201;38883;-84
2021/11/06 11:25:51;;;;;;;3.80;2.20;;;;;;;10.26;53.68;97758.72;115148;1201;25297;-87
2021/11/06 11:28:22;;;;;;;2.10;1.50;;;;;;;10.42;53.68;97753.08;115000;1201;24218;-88
2021/11/06 11:30:54;;;;;;;4.60;2.80;;;;;;;10.47;52.80;97748.73;115008;1202;24020;-88
2021/11/06 11:33:28;;;;;;;4.50;2.10;;;;;;;10.47;53.06;97752.60;115142;1202;27633;-87
2021/11/06 11:36:00;;;;;;;3.50;1.70;;;;;;;10.56;52.79;97750.55;115101;1197;26120;-82
2021/11/06 11:38:31;;;;;;;7.30;3.40;;;;;;;10.56;51.99;97747.17;115241;1200;25784;-82
2021/11/06 11:41:46;;;;;;;4.70;2.80;;;;;;;10.56;52.53;97750.73;115302;1200;23451;-82
2021/11/06 11:44:43;;;;;;;3.10;2.00;;;;;;;10.73;52.58;97754.30;115239;1201;28208;-82
2021/11/06 11:47:19;;;;;;;3.30;2.20;;;;;;;10.84;52.88;97749.24;115265;1200;25471;-81
2021/11/06 11:49:57;;;;;;;2.50;1.70;;;;;;;10.99;52.27;97742.92;115221;1200;26205;-82
2021/11/06 11:52:34;;;;;;;3.70;2.10;;;;;;;10.95;51.88;97734.48;115303;1200;28396;-81
2021/11/06 11:55:12;;;;;;;5.30;2.30;;;;;;;11.05;52.21;97729.64;115293;1200;27061;-81
2021/11/06 11:57:50;;;;;;;8.10;4.70;;;;;;;11.16;51.95;97720.75;115492;1199;29207;-81
2021/11/06 12:00:45;;;;;;;5.50;3.60;;;;;;;11.17;51.82;97721.08;115644;1199;25611;-81